sensor_id;sensor_type;location;lat;lon;timestamp;P1;durP1;ratioP1;P2;durP2;ratioP2
54945;SDS011;40846;44.788;20.486;2023-03-01T00:02:25;81.22;;;34.85;;
54945;SDS011;40846;44.788;20.486;2023-03-01T00:04:51;90.70;;;38.90;;
54945;SDS011;40846;44.788;20.486;2023-03-01T00:07:17;94.60;;;37.45;;
54945;SDS011;40846;44.788;20.486;2023-03-01T00:09:43;106.57;;;39.25;;
54945;SDS011;40846;44.788;20.486;2023-03-01T00:12:11;151.35;;;52.70;;
54945;SDS011;40846;44.788;20.486;2023-03-01T00:14:39;188.93;;;65.47;;
54945;SDS011;40846;44.788;20.486;2023-03-01T00:17:13;138.10;;;50.92;;
54945;SDS011;40846;44.788;20.486;2023-03-01T00:20:17;103.43;;;38.75;;
54945;SDS011;40846;44.788;20.486;2023-03-01T00:22:43;126.10;;;48.15;;
54945;SDS011;40846;44.788;20.486;2023-03-01T00:25:09;118.57;;;44.65;;
54945;SDS011;40846;44.788;20.486;2023-03-01T00:27:35;88.82;;;35.10;;
54945;SDS011;40846;44.788;20.486;2023-03-01T00:30:01;92.97;;;36.97;;
54945;SDS011;40846;44.788;20.486;2023-03-01T00:32:27;99.70;;;39.35;;
54945;SDS011;40846;44.788;20.486;2023-03-01T00:34:54;123.07;;;46.33;;
54945;SDS011;40846;44.788;20.486;2023-03-01T00:37:20;154.30;;;57.72;;
54945;SDS011;40846;44.788;20.486;2023-03-01T00:39:47;102.55;;;39.80;;
54945;SDS011;40846;44.788;20.486;2023-03-01T00:42:13;127.03;;;43.85;;
54945;SDS011;40846;44.788;20.486;2023-03-01T00:44:39;130.73;;;46.45;;
54945;SDS011;40846;44.788;20.486;2023-03-01T00:47:05;103.25;;;37.90;;
54945;SDS011;40846;44.788;20.486;2023-03-01T00:49:32;119.90;;;46.25;;
54945;SDS011;40846;44.788;20.486;2023-03-01T00:52:01;113.35;;;42.90;;
54945;SDS011;40846;44.788;20.486;2023-03-01T00:54:27;101.07;;;38.25;;
54945;SDS011;40846;44.788;20.486;2023-03-01T00:56:53;102.82;;;38.65;;
54945;SDS011;40846;44.788;20.486;2023-03-01T00:59:19;92.45;;;34.88;;
54945;SDS011;40846;44.788;20.486;2023-03-01T01:01:45;113.95;;;44.13;;
54945;SDS011;40846;44.788;20.486;2023-03-01T01:04:13;115.53;;;43.85;;
54945;SDS011;40846;44.788;20.486;2023-03-01T01:06:41;93.68;;;38.38;;
54945;SDS011;40846;44.788;20.486;2023-03-01T01:09:07;102.93;;;39.05;;
54945;SDS011;40846;44.788;20.486;2023-03-01T01:11:34;109.20;;;40.45;;
54945;SDS011;40846;44.788;20.486;2023-03-01T01:14:03;142.95;;;51.03;;
54945;SDS011;40846;44.788;20.486;2023-03-01T01:16:29;131.68;;;46.00;;
54945;SDS011;40846;44.788;20.486;2023-03-01T01:18:56;124.85;;;45.25;;
54945;SDS011;40846;44.788;20.486;2023-03-01T01:21:23;100.45;;;40.53;;
54945;SDS011;40846;44.788;20.486;2023-03-01T01:23:49;97.90;;;39.40;;
54945;SDS011;40846;44.788;20.486;2023-03-01T01:26:17;98.70;;;36.92;;
54945;SDS011;40846;44.788;20.486;2023-03-01T01:28:44;117.93;;;42.22;;
54945;SDS011;40846;44.788;20.486;2023-03-01T01:31:10;128.75;;;46.05;;
54945;SDS011;40846;44.788;20.486;2023-03-01T01:33:36;115.63;;;43.25;;
54945;SDS011;40846;44.788;20.486;2023-03-01T01:36:05;102.80;;;38.00;;
54945;SDS011;40846;44.788;20.486;2023-03-01T01:38:31;96.82;;;38.20;;
54945;SDS011;40846;44.788;20.486;2023-03-01T01:40:57;93.40;;;38.72;;
54945;SDS011;40846;44.788;20.486;2023-03-01T01:43:25;169.02;;;59.55;;
54945;SDS011;40846;44.788;20.486;2023-03-01T01:45:53;193.23;;;68.85;;
54945;SDS011;40846;44.788;20.486;2023-03-01T01:48:21;141.55;;;50.22;;
54945;SDS011;40846;44.788;20.486;2023-03-01T01:50:53;134.50;;;51.45;;
54945;SDS011;40846;44.788;20.486;2023-03-01T01:53:21;120.50;;;44.13;;
54945;SDS011;40846;44.788;20.486;2023-03-01T01:55:48;150.60;;;53.20;;
54945;SDS011;40846;44.788;20.486;2023-03-01T01:58:17;168.48;;;57.70;;
54945;SDS011;40846;44.788;20.486;2023-03-01T02:01:05;238.43;;;76.18;;
54945;SDS011;40846;44.788;20.486;2023-03-01T02:03:33;146.40;;;51.38;;
54945;SDS011;40846;44.788;20.486;2023-03-01T02:08:32;140.45;;;52.42;;
54945;SDS011;40846;44.788;20.486;2023-03-01T02:10:58;129.38;;;48.03;;
54945;SDS011;40846;44.788;20.486;2023-03-01T02:13:29;130.80;;;47.92;;
54945;SDS011;40846;44.788;20.486;2023-03-01T02:15:55;98.30;;;41.13;;
54945;SDS011;40846;44.788;20.486;2023-03-01T02:18:22;236.95;;;70.13;;
54945;SDS011;40846;44.788;20.486;2023-03-01T02:23:36;126.85;;;45.92;;
54945;SDS011;40846;44.788;20.486;2023-03-01T02:28:33;105.97;;;40.92;;
54945;SDS011;40846;44.788;20.486;2023-03-01T02:31:01;210.88;;;68.43;;
54945;SDS011;40846;44.788;20.486;2023-03-01T02:33:46;119.05;;;43.72;;
54945;SDS011;40846;44.788;20.486;2023-03-01T02:36:17;163.20;;;53.13;;
54945;SDS011;40846;44.788;20.486;2023-03-01T02:39:03;175.43;;;58.70;;
54945;SDS011;40846;44.788;20.486;2023-03-01T02:41:38;118.97;;;42.17;;
54945;SDS011;40846;44.788;20.486;2023-03-01T02:44:14;128.02;;;45.65;;
54945;SDS011;40846;44.788;20.486;2023-03-01T02:46:52;128.57;;;46.28;;
54945;SDS011;40846;44.788;20.486;2023-03-01T02:51:52;76.10;;;35.72;;
54945;SDS011;40846;44.788;20.486;2023-03-01T02:54:24;79.68;;;36.53;;
54945;SDS011;40846;44.788;20.486;2023-03-01T02:56:51;102.45;;;43.20;;
54945;SDS011;40846;44.788;20.486;2023-03-01T02:59:18;94.80;;;41.03;;
54945;SDS011;40846;44.788;20.486;2023-03-01T03:05:01;120.07;;;46.92;;
54945;SDS011;40846;44.788;20.486;2023-03-01T03:07:28;94.10;;;40.95;;
54945;SDS011;40846;44.788;20.486;2023-03-01T03:13:09;90.25;;;38.85;;
54945;SDS011;40846;44.788;20.486;2023-03-01T03:15:35;87.25;;;40.10;;
54945;SDS011;40846;44.788;20.486;2023-03-01T03:18:04;143.77;;;54.40;;
54945;SDS011;40846;44.788;20.486;2023-03-01T03:20:30;100.70;;;41.70;;
54945;SDS011;40846;44.788;20.486;2023-03-01T03:22:57;148.63;;;56.33;;
54945;SDS011;40846;44.788;20.486;2023-03-01T03:25:23;71.45;;;36.50;;
54945;SDS011;40846;44.788;20.486;2023-03-01T03:27:51;69.97;;;34.72;;
54945;SDS011;40846;44.788;20.486;2023-03-01T03:30:24;151.18;;;55.08;;
54945;SDS011;40846;44.788;20.486;2023-03-01T03:32:51;220.25;;;78.03;;
54945;SDS011;40846;44.788;20.486;2023-03-01T03:35:21;117.88;;;48.08;;
54945;SDS011;40846;44.788;20.486;2023-03-01T03:37:49;102.97;;;45.22;;
54945;SDS011;40846;44.788;20.486;2023-03-01T03:40:49;112.53;;;45.60;;
54945;SDS011;40846;44.788;20.486;2023-03-01T03:43:16;73.82;;;34.83;;
54945;SDS011;40846;44.788;20.486;2023-03-01T03:45:43;64.15;;;32.67;;
54945;SDS011;40846;44.788;20.486;2023-03-01T03:48:10;111.85;;;46.20;;
54945;SDS011;40846;44.788;20.486;2023-03-01T03:50:37;116.68;;;46.75;;
54945;SDS011;40846;44.788;20.486;2023-03-01T03:53:09;98.82;;;41.40;;
54945;SDS011;40846;44.788;20.486;2023-03-01T03:55:41;146.57;;;56.30;;
54945;SDS011;40846;44.788;20.486;2023-03-01T04:01:15;89.00;;;38.42;;
54945;SDS011;40846;44.788;20.486;2023-03-01T04:03:41;71.28;;;35.28;;
54945;SDS011;40846;44.788;20.486;2023-03-01T04:09:08;68.45;;;33.67;;
54945;SDS011;40846;44.788;20.486;2023-03-01T04:11:52;82.38;;;37.35;;
54945;SDS011;40846;44.788;20.486;2023-03-01T04:14:19;97.00;;;43.67;;
54945;SDS011;40846;44.788;20.486;2023-03-01T04:19:48;85.00;;;39.83;;
54945;SDS011;40846;44.788;20.486;2023-03-01T04:22:35;77.07;;;37.00;;
54945;SDS011;40846;44.788;20.486;2023-03-01T04:25:01;74.22;;;38.88;;
54945;SDS011;40846;44.788;20.486;2023-03-01T04:27:27;72.43;;;38.22;;
54945;SDS011;40846;44.788;20.486;2023-03-01T04:29:53;93.50;;;46.90;;
54945;SDS011;40846;44.788;20.486;2023-03-01T04:32:19;91.10;;;44.67;;
54945;SDS011;40846;44.788;20.486;2023-03-01T04:34:45;65.75;;;35.65;;
54945;SDS011;40846;44.788;20.486;2023-03-01T04:37:11;63.05;;;34.45;;
54945;SDS011;40846;44.788;20.486;2023-03-01T04:39:37;65.40;;;33.03;;
54945;SDS011;40846;44.788;20.486;2023-03-01T04:42:28;75.85;;;39.70;;
54945;SDS011;40846;44.788;20.486;2023-03-01T04:44:55;64.03;;;33.85;;
54945;SDS011;40846;44.788;20.486;2023-03-01T04:47:21;63.58;;;32.20;;
54945;SDS011;40846;44.788;20.486;2023-03-01T04:49:47;63.30;;;32.28;;
54945;SDS011;40846;44.788;20.486;2023-03-01T04:52:13;60.80;;;32.50;;
54945;SDS011;40846;44.788;20.486;2023-03-01T04:54:39;56.97;;;30.05;;
54945;SDS011;40846;44.788;20.486;2023-03-01T04:57:05;54.92;;;30.02;;
54945;SDS011;40846;44.788;20.486;2023-03-01T04:59:31;58.65;;;30.27;;
54945;SDS011;40846;44.788;20.486;2023-03-01T05:01:58;58.10;;;31.17;;
54945;SDS011;40846;44.788;20.486;2023-03-01T05:04:25;61.53;;;30.13;;
54945;SDS011;40846;44.788;20.486;2023-03-01T05:06:54;62.55;;;32.03;;
54945;SDS011;40846;44.788;20.486;2023-03-01T05:09:21;61.45;;;31.83;;
54945;SDS011;40846;44.788;20.486;2023-03-01T05:11:47;57.58;;;31.27;;
54945;SDS011;40846;44.788;20.486;2023-03-01T05:14:24;63.42;;;31.65;;
54945;SDS011;40846;44.788;20.486;2023-03-01T05:16:55;63.33;;;31.52;;
54945;SDS011;40846;44.788;20.486;2023-03-01T05:19:34;59.72;;;31.90;;
54945;SDS011;40846;44.788;20.486;2023-03-01T05:22:00;61.60;;;31.35;;
54945;SDS011;40846;44.788;20.486;2023-03-01T05:24:30;60.40;;;30.80;;
54945;SDS011;40846;44.788;20.486;2023-03-01T05:27:02;65.68;;;31.83;;
54945;SDS011;40846;44.788;20.486;2023-03-01T05:29:28;63.72;;;29.90;;
54945;SDS011;40846;44.788;20.486;2023-03-01T05:32:02;59.80;;;28.73;;
54945;SDS011;40846;44.788;20.486;2023-03-01T05:34:29;62.95;;;31.45;;
54945;SDS011;40846;44.788;20.486;2023-03-01T05:36:59;52.42;;;28.20;;
54945;SDS011;40846;44.788;20.486;2023-03-01T05:39:35;58.50;;;30.15;;
54945;SDS011;40846;44.788;20.486;2023-03-01T05:42:14;49.55;;;26.55;;
54945;SDS011;40846;44.788;20.486;2023-03-01T05:44:50;49.60;;;27.33;;
54945;SDS011;40846;44.788;20.486;2023-03-01T05:47:26;47.65;;;23.67;;
54945;SDS011;40846;44.788;20.486;2023-03-01T05:50:03;39.08;;;21.55;;
54945;SDS011;40846;44.788;20.486;2023-03-01T05:52:29;44.15;;;23.25;;
54945;SDS011;40846;44.788;20.486;2023-03-01T05:54:55;42.40;;;22.85;;
54945;SDS011;40846;44.788;20.486;2023-03-01T05:57:21;36.80;;;21.42;;
54945;SDS011;40846;44.788;20.486;2023-03-01T05:59:47;40.60;;;21.88;;
54945;SDS011;40846;44.788;20.486;2023-03-01T06:02:13;37.25;;;20.35;;
54945;SDS011;40846;44.788;20.486;2023-03-01T06:04:42;36.40;;;20.27;;
54945;SDS011;40846;44.788;20.486;2023-03-01T06:07:08;37.88;;;20.35;;
54945;SDS011;40846;44.788;20.486;2023-03-01T06:09:34;36.58;;;18.80;;
54945;SDS011;40846;44.788;20.486;2023-03-01T06:12:00;31.85;;;18.33;;
54945;SDS011;40846;44.788;20.486;2023-03-01T06:14:26;38.35;;;19.52;;
54945;SDS011;40846;44.788;20.486;2023-03-01T06:16:52;41.72;;;19.95;;
54945;SDS011;40846;44.788;20.486;2023-03-01T06:19:18;38.33;;;19.83;;
54945;SDS011;40846;44.788;20.486;2023-03-01T06:21:44;32.60;;;18.58;;
54945;SDS011;40846;44.788;20.486;2023-03-01T06:24:10;39.08;;;18.20;;
54945;SDS011;40846;44.788;20.486;2023-03-01T06:26:36;42.05;;;21.70;;
54945;SDS011;40846;44.788;20.486;2023-03-01T06:29:02;37.25;;;19.85;;
54945;SDS011;40846;44.788;20.486;2023-03-01T06:31:28;35.75;;;18.52;;
54945;SDS011;40846;44.788;20.486;2023-03-01T06:33:54;38.63;;;19.85;;
54945;SDS011;40846;44.788;20.486;2023-03-01T06:36:20;38.20;;;20.65;;
54945;SDS011;40846;44.788;20.486;2023-03-01T06:38:49;33.33;;;17.48;;
54945;SDS011;40846;44.788;20.486;2023-03-01T06:41:15;38.28;;;17.33;;
54945;SDS011;40846;44.788;20.486;2023-03-01T06:43:41;32.00;;;17.23;;
54945;SDS011;40846;44.788;20.486;2023-03-01T06:46:07;33.78;;;17.23;;
54945;SDS011;40846;44.788;20.486;2023-03-01T06:48:33;30.75;;;16.40;;
54945;SDS011;40846;44.788;20.486;2023-03-01T06:54:09;34.28;;;15.60;;
54945;SDS011;40846;44.788;20.486;2023-03-01T06:56:35;30.90;;;16.88;;
54945;SDS011;40846;44.788;20.486;2023-03-01T06:59:01;31.83;;;15.68;;
54945;SDS011;40846;44.788;20.486;2023-03-01T07:01:27;33.70;;;17.27;;
54945;SDS011;40846;44.788;20.486;2023-03-01T07:03:54;37.88;;;17.67;;
54945;SDS011;40846;44.788;20.486;2023-03-01T07:06:20;28.58;;;15.15;;
54945;SDS011;40846;44.788;20.486;2023-03-01T07:08:49;35.13;;;16.98;;
54945;SDS011;40846;44.788;20.486;2023-03-01T07:11:17;33.63;;;16.77;;
54945;SDS011;40846;44.788;20.486;2023-03-01T07:13:43;39.03;;;18.48;;
54945;SDS011;40846;44.788;20.486;2023-03-01T07:16:09;36.78;;;15.23;;
54945;SDS011;40846;44.788;20.486;2023-03-01T07:18:35;31.02;;;14.95;;
54945;SDS011;40846;44.788;20.486;2023-03-01T07:21:05;34.25;;;17.48;;
54945;SDS011;40846;44.788;20.486;2023-03-01T07:23:31;40.80;;;19.13;;
54945;SDS011;40846;44.788;20.486;2023-03-01T07:25:57;40.33;;;17.98;;
54945;SDS011;40846;44.788;20.486;2023-03-01T07:28:24;26.63;;;14.27;;
54945;SDS011;40846;44.788;20.486;2023-03-01T07:30:50;29.58;;;15.57;;
54945;SDS011;40846;44.788;20.486;2023-03-01T07:33:16;34.53;;;16.73;;
54945;SDS011;40846;44.788;20.486;2023-03-01T07:35:42;27.80;;;14.73;;
54945;SDS011;40846;44.788;20.486;2023-03-01T07:38:09;26.55;;;13.30;;
54945;SDS011;40846;44.788;20.486;2023-03-01T07:40:38;33.30;;;15.48;;
54945;SDS011;40846;44.788;20.486;2023-03-01T07:43:04;26.80;;;13.52;;
54945;SDS011;40846;44.788;20.486;2023-03-01T07:45:31;27.08;;;13.80;;
54945;SDS011;40846;44.788;20.486;2023-03-01T07:47:57;28.52;;;15.32;;
54945;SDS011;40846;44.788;20.486;2023-03-01T07:50:23;28.02;;;13.73;;
54945;SDS011;40846;44.788;20.486;2023-03-01T07:52:49;20.80;;;11.50;;
54945;SDS011;40846;44.788;20.486;2023-03-01T07:55:15;22.40;;;11.88;;
54945;SDS011;40846;44.788;20.486;2023-03-01T07:57:42;24.42;;;12.65;;
54945;SDS011;40846;44.788;20.486;2023-03-01T08:00:09;21.38;;;11.68;;
54945;SDS011;40846;44.788;20.486;2023-03-01T08:02:36;20.15;;;10.90;;
54945;SDS011;40846;44.788;20.486;2023-03-01T08:05:02;22.10;;;11.05;;
54945;SDS011;40846;44.788;20.486;2023-03-01T08:07:37;22.17;;;11.73;;
54945;SDS011;40846;44.788;20.486;2023-03-01T08:10:06;23.55;;;8.82;;
54945;SDS011;40846;44.788;20.486;2023-03-01T08:12:32;15.55;;;8.25;;
54945;SDS011;40846;44.788;20.486;2023-03-01T08:14:58;17.60;;;9.43;;
54945;SDS011;40846;44.788;20.486;2023-03-01T08:17:24;17.50;;;8.95;;
54945;SDS011;40846;44.788;20.486;2023-03-01T08:19:50;16.92;;;9.05;;
54945;SDS011;40846;44.788;20.486;2023-03-01T08:22:17;21.58;;;9.35;;
54945;SDS011;40846;44.788;20.486;2023-03-01T08:24:43;20.80;;;10.38;;
54945;SDS011;40846;44.788;20.486;2023-03-01T08:27:10;20.42;;;10.45;;
54945;SDS011;40846;44.788;20.486;2023-03-01T08:29:38;19.40;;;10.07;;
54945;SDS011;40846;44.788;20.486;2023-03-01T08:32:04;20.38;;;10.63;;
54945;SDS011;40846;44.788;20.486;2023-03-01T08:34:30;18.45;;;9.32;;
54945;SDS011;40846;44.788;20.486;2023-03-01T08:36:57;18.77;;;9.45;;
54945;SDS011;40846;44.788;20.486;2023-03-01T08:39:23;13.23;;;7.85;;
54945;SDS011;40846;44.788;20.486;2023-03-01T08:41:49;15.07;;;8.20;;
54945;SDS011;40846;44.788;20.486;2023-03-01T08:44:15;8.77;;;4.72;;
54945;SDS011;40846;44.788;20.486;2023-03-01T08:46:42;9.70;;;5.65;;
54945;SDS011;40846;44.788;20.486;2023-03-01T08:49:12;9.95;;;4.90;;
54945;SDS011;40846;44.788;20.486;2023-03-01T08:51:39;9.18;;;4.75;;
54945;SDS011;40846;44.788;20.486;2023-03-01T08:54:06;9.35;;;5.25;;
54945;SDS011;40846;44.788;20.486;2023-03-01T08:56:32;6.88;;;3.65;;
54945;SDS011;40846;44.788;20.486;2023-03-01T08:58:59;8.70;;;3.90;;
54945;SDS011;40846;44.788;20.486;2023-03-01T09:01:25;7.57;;;4.05;;
54945;SDS011;40846;44.788;20.486;2023-03-01T09:03:51;9.55;;;4.55;;
54945;SDS011;40846;44.788;20.486;2023-03-01T09:06:18;6.93;;;3.88;;
54945;SDS011;40846;44.788;20.486;2023-03-01T09:08:45;8.70;;;4.40;;
54945;SDS011;40846;44.788;20.486;2023-03-01T09:11:13;9.27;;;4.10;;
54945;SDS011;40846;44.788;20.486;2023-03-01T09:13:41;12.27;;;4.97;;
54945;SDS011;40846;44.788;20.486;2023-03-01T09:16:10;11.45;;;4.80;;
54945;SDS011;40846;44.788;20.486;2023-03-01T09:18:37;9.32;;;4.90;;
54945;SDS011;40846;44.788;20.486;2023-03-01T09:21:04;8.52;;;4.85;;
54945;SDS011;40846;44.788;20.486;2023-03-01T09:23:37;7.40;;;3.58;;
54945;SDS011;40846;44.788;20.486;2023-03-01T09:26:03;6.38;;;3.80;;
54945;SDS011;40846;44.788;20.486;2023-03-01T09:28:30;7.47;;;3.80;;
54945;SDS011;40846;44.788;20.486;2023-03-01T09:30:59;8.52;;;3.97;;
54945;SDS011;40846;44.788;20.486;2023-03-01T09:33:26;9.77;;;4.20;;
54945;SDS011;40846;44.788;20.486;2023-03-01T09:36:01;7.35;;;4.72;;
54945;SDS011;40846;44.788;20.486;2023-03-01T09:38:28;6.82;;;3.83;;
54945;SDS011;40846;44.788;20.486;2023-03-01T09:40:54;12.27;;;4.70;;
54945;SDS011;40846;44.788;20.486;2023-03-01T09:43:23;9.30;;;4.50;;
54945;SDS011;40846;44.788;20.486;2023-03-01T09:45:52;8.02;;;4.47;;
54945;SDS011;40846;44.788;20.486;2023-03-01T09:48:21;8.90;;;5.03;;
54945;SDS011;40846;44.788;20.486;2023-03-01T09:50:48;8.13;;;4.70;;
54945;SDS011;40846;44.788;20.486;2023-03-01T09:53:22;13.18;;;4.47;;
54945;SDS011;40846;44.788;20.486;2023-03-01T09:55:53;6.80;;;3.53;;
54945;SDS011;40846;44.788;20.486;2023-03-01T10:00:50;8.00;;;4.38;;
54945;SDS011;40846;44.788;20.486;2023-03-01T10:03:17;9.00;;;4.93;;
54945;SDS011;40846;44.788;20.486;2023-03-01T10:10:46;10.50;;;4.15;;
54945;SDS011;40846;44.788;20.486;2023-03-01T10:15:48;9.27;;;4.50;;
54945;SDS011;40846;44.788;20.486;2023-03-01T10:18:20;12.20;;;4.95;;
54945;SDS011;40846;44.788;20.486;2023-03-01T10:23:14;15.90;;;5.88;;
54945;SDS011;40846;44.788;20.486;2023-03-01T10:28:33;9.93;;;4.68;;
54945;SDS011;40846;44.788;20.486;2023-03-01T10:31:01;11.93;;;4.38;;
54945;SDS011;40846;44.788;20.486;2023-03-01T10:33:31;6.60;;;4.03;;
54945;SDS011;40846;44.788;20.486;2023-03-01T10:35:57;7.63;;;3.60;;
54945;SDS011;40846;44.788;20.486;2023-03-01T10:38:23;7.30;;;3.70;;
54945;SDS011;40846;44.788;20.486;2023-03-01T10:41:07;8.20;;;3.40;;
54945;SDS011;40846;44.788;20.486;2023-03-01T10:43:52;7.72;;;3.70;;
54945;SDS011;40846;44.788;20.486;2023-03-01T10:49:23;8.57;;;4.05;;
54945;SDS011;40846;44.788;20.486;2023-03-01T10:51:48;9.65;;;5.22;;
54945;SDS011;40846;44.788;20.486;2023-03-01T10:54:17;9.60;;;3.20;;
54945;SDS011;40846;44.788;20.486;2023-03-01T10:57:02;7.97;;;3.85;;
54945;SDS011;40846;44.788;20.486;2023-03-01T10:59:30;6.53;;;3.67;;
54945;SDS011;40846;44.788;20.486;2023-03-01T11:02:23;8.20;;;4.45;;
54945;SDS011;40846;44.788;20.486;2023-03-01T11:10:35;7.43;;;4.40;;
54945;SDS011;40846;44.788;20.486;2023-03-01T11:15:39;8.20;;;4.05;;
54945;SDS011;40846;44.788;20.486;2023-03-01T11:18:05;14.00;;;6.60;;
54945;SDS011;40846;44.788;20.486;2023-03-01T11:20:44;10.35;;;5.35;;
54945;SDS011;40846;44.788;20.486;2023-03-01T11:23:11;26.33;;;5.43;;
54945;SDS011;40846;44.788;20.486;2023-03-01T11:25:43;9.27;;;4.85;;
54945;SDS011;40846;44.788;20.486;2023-03-01T11:28:16;9.23;;;4.53;;
54945;SDS011;40846;44.788;20.486;2023-03-01T11:30:48;11.23;;;5.77;;
54945;SDS011;40846;44.788;20.486;2023-03-01T11:33:45;10.02;;;4.72;;
54945;SDS011;40846;44.788;20.486;2023-03-01T11:36:32;8.10;;;4.25;;
54945;SDS011;40846;44.788;20.486;2023-03-01T11:45:15;12.85;;;4.63;;
54945;SDS011;40846;44.788;20.486;2023-03-01T11:55:43;13.80;;;5.32;;
54945;SDS011;40846;44.788;20.486;2023-03-01T11:58:18;14.75;;;4.72;;
54945;SDS011;40846;44.788;20.486;2023-03-01T12:23:30;7.65;;;4.70;;
54945;SDS011;40846;44.788;20.486;2023-03-01T12:28:53;11.93;;;6.03;;
54945;SDS011;40846;44.788;20.486;2023-03-01T12:39:12;13.95;;;6.10;;
54945;SDS011;40846;44.788;20.486;2023-03-01T12:42:01;16.40;;;7.43;;
54945;SDS011;40846;44.788;20.486;2023-03-01T12:47:37;11.50;;;5.50;;
54945;SDS011;40846;44.788;20.486;2023-03-01T12:50:23;12.45;;;5.40;;
54945;SDS011;40846;44.788;20.486;2023-03-01T12:52:52;9.88;;;4.82;;
54945;SDS011;40846;44.788;20.486;2023-03-01T12:55:36;12.38;;;5.22;;
54945;SDS011;40846;44.788;20.486;2023-03-01T12:58:07;14.43;;;5.97;;
54945;SDS011;40846;44.788;20.486;2023-03-01T13:00:44;11.27;;;5.63;;
54945;SDS011;40846;44.788;20.486;2023-03-01T13:03:32;14.13;;;5.75;;
54945;SDS011;40846;44.788;20.486;2023-03-01T13:06:22;12.57;;;5.95;;
54945;SDS011;40846;44.788;20.486;2023-03-01T13:16:45;14.40;;;6.00;;
54945;SDS011;40846;44.788;20.486;2023-03-01T13:19:17;17.58;;;6.82;;
54945;SDS011;40846;44.788;20.486;2023-03-01T13:21:44;13.32;;;7.07;;
54945;SDS011;40846;44.788;20.486;2023-03-01T13:29:56;19.17;;;6.05;;
54945;SDS011;40846;44.788;20.486;2023-03-01T13:34:59;8.88;;;4.70;;
54945;SDS011;40846;44.788;20.486;2023-03-01T13:37:30;14.18;;;6.47;;
54945;SDS011;40846;44.788;20.486;2023-03-01T13:40:02;11.85;;;5.32;;
54945;SDS011;40846;44.788;20.486;2023-03-01T13:42:51;9.43;;;5.30;;
54945;SDS011;40846;44.788;20.486;2023-03-01T13:45:32;11.18;;;5.72;;
54945;SDS011;40846;44.788;20.486;2023-03-01T13:51:07;10.00;;;5.32;;
54945;SDS011;40846;44.788;20.486;2023-03-01T13:53:36;12.15;;;5.47;;
54945;SDS011;40846;44.788;20.486;2023-03-01T13:56:09;13.07;;;6.40;;
54945;SDS011;40846;44.788;20.486;2023-03-01T13:58:46;13.27;;;7.22;;
54945;SDS011;40846;44.788;20.486;2023-03-01T14:01:23;13.88;;;7.10;;
54945;SDS011;40846;44.788;20.486;2023-03-01T14:03:59;13.35;;;7.38;;
54945;SDS011;40846;44.788;20.486;2023-03-01T14:06:27;16.35;;;7.50;;
54945;SDS011;40846;44.788;20.486;2023-03-01T14:09:05;19.15;;;8.48;;
54945;SDS011;40846;44.788;20.486;2023-03-01T14:20:11;19.25;;;8.85;;
54945;SDS011;40846;44.788;20.486;2023-03-01T14:22:49;22.15;;;9.02;;
54945;SDS011;40846;44.788;20.486;2023-03-01T14:25:23;19.52;;;8.63;;
54945;SDS011;40846;44.788;20.486;2023-03-01T14:27:58;16.35;;;9.40;;
54945;SDS011;40846;44.788;20.486;2023-03-01T14:30:34;19.98;;;9.00;;
54945;SDS011;40846;44.788;20.486;2023-03-01T14:33:04;24.00;;;8.63;;
54945;SDS011;40846;44.788;20.486;2023-03-01T14:35:35;18.02;;;8.43;;
54945;SDS011;40846;44.788;20.486;2023-03-01T14:38:02;15.02;;;8.30;;
54945;SDS011;40846;44.788;20.486;2023-03-01T14:40:32;20.23;;;9.57;;
54945;SDS011;40846;44.788;20.486;2023-03-01T14:43:08;20.60;;;10.48;;
54945;SDS011;40846;44.788;20.486;2023-03-01T14:45:39;21.27;;;9.75;;
54945;SDS011;40846;44.788;20.486;2023-03-01T14:48:11;22.70;;;9.77;;
54945;SDS011;40846;44.788;20.486;2023-03-01T14:50:40;20.02;;;8.77;;
54945;SDS011;40846;44.788;20.486;2023-03-01T14:53:13;17.25;;;9.30;;
54945;SDS011;40846;44.788;20.486;2023-03-01T14:55:52;18.13;;;9.80;;
54945;SDS011;40846;44.788;20.486;2023-03-01T14:58:22;16.75;;;9.05;;
54945;SDS011;40846;44.788;20.486;2023-03-01T15:00:51;20.65;;;11.88;;
54945;SDS011;40846;44.788;20.486;2023-03-01T15:03:31;17.02;;;8.45;;
54945;SDS011;40846;44.788;20.486;2023-03-01T15:06:02;17.95;;;8.55;;
54945;SDS011;40846;44.788;20.486;2023-03-01T15:08:30;15.77;;;8.40;;
54945;SDS011;40846;44.788;20.486;2023-03-01T15:11:05;20.90;;;9.68;;
54945;SDS011;40846;44.788;20.486;2023-03-01T15:13:50;21.00;;;10.45;;
54945;SDS011;40846;44.788;20.486;2023-03-01T15:16:18;20.90;;;10.63;;
54945;SDS011;40846;44.788;20.486;2023-03-01T15:18:48;25.75;;;11.63;;
54945;SDS011;40846;44.788;20.486;2023-03-01T15:26:40;22.90;;;10.77;;
54945;SDS011;40846;44.788;20.486;2023-03-01T15:29:19;27.10;;;11.02;;
54945;SDS011;40846;44.788;20.486;2023-03-01T15:34:48;22.73;;;10.35;;
54945;SDS011;40846;44.788;20.486;2023-03-01T15:43:05;23.75;;;11.38;;
54945;SDS011;40846;44.788;20.486;2023-03-01T15:45:32;27.50;;;10.77;;
54945;SDS011;40846;44.788;20.486;2023-03-01T15:48:13;27.30;;;12.87;;
54945;SDS011;40846;44.788;20.486;2023-03-01T15:50:43;25.05;;;12.07;;
54945;SDS011;40846;44.788;20.486;2023-03-01T15:53:19;26.85;;;11.93;;
54945;SDS011;40846;44.788;20.486;2023-03-01T15:55:44;27.08;;;12.40;;
54945;SDS011;40846;44.788;20.486;2023-03-01T15:58:15;23.15;;;11.93;;
54945;SDS011;40846;44.788;20.486;2023-03-01T16:00:44;28.85;;;12.40;;
54945;SDS011;40846;44.788;20.486;2023-03-01T16:03:12;27.08;;;11.65;;
54945;SDS011;40846;44.788;20.486;2023-03-01T16:05:38;27.63;;;13.27;;
54945;SDS011;40846;44.788;20.486;2023-03-01T16:08:04;26.13;;;12.43;;
54945;SDS011;40846;44.788;20.486;2023-03-01T16:10:31;23.42;;;11.75;;
54945;SDS011;40846;44.788;20.486;2023-03-01T16:12:58;23.08;;;10.75;;
54945;SDS011;40846;44.788;20.486;2023-03-01T16:15:28;22.83;;;10.23;;
54945;SDS011;40846;44.788;20.486;2023-03-01T16:17:56;20.55;;;10.65;;
54945;SDS011;40846;44.788;20.486;2023-03-01T16:20:28;25.85;;;12.10;;
54945;SDS011;40846;44.788;20.486;2023-03-01T16:23:03;22.83;;;11.73;;
54945;SDS011;40846;44.788;20.486;2023-03-01T16:25:30;24.88;;;11.93;;
54945;SDS011;40846;44.788;20.486;2023-03-01T16:27:57;28.55;;;12.20;;
54945;SDS011;40846;44.788;20.486;2023-03-01T16:30:26;30.50;;;12.73;;
54945;SDS011;40846;44.788;20.486;2023-03-01T16:32:52;27.15;;;13.15;;
54945;SDS011;40846;44.788;20.486;2023-03-01T16:35:19;27.60;;;13.07;;
54945;SDS011;40846;44.788;20.486;2023-03-01T16:37:46;33.42;;;12.82;;
54945;SDS011;40846;44.788;20.486;2023-03-01T16:42:45;27.13;;;13.70;;
54945;SDS011;40846;44.788;20.486;2023-03-01T16:45:11;25.58;;;13.88;;
54945;SDS011;40846;44.788;20.486;2023-03-01T16:47:37;25.70;;;12.88;;
54945;SDS011;40846;44.788;20.486;2023-03-01T16:50:04;26.85;;;13.20;;
54945;SDS011;40846;44.788;20.486;2023-03-01T16:52:30;30.88;;;14.68;;
54945;SDS011;40846;44.788;20.486;2023-03-01T16:54:56;35.20;;;14.13;;
54945;SDS011;40846;44.788;20.486;2023-03-01T16:57:22;36.92;;;15.15;;
54945;SDS011;40846;44.788;20.486;2023-03-01T16:59:58;33.88;;;14.30;;